createdAt,value
2022-09-02T00:01:50.451Z,24.30
2022-09-02T00:06:50.074Z,24.15
2022-09-02T00:11:51.922Z,24.20
2022-09-02T00:16:52.949Z,24.09
2022-09-02T00:26:56.584Z,24.15
2022-09-02T00:31:57.607Z,24.05
2022-09-02T00:36:56.901Z,24.10
2022-09-02T00:41:55.895Z,24.14
2022-09-02T00:46:56.207Z,24.02
2022-09-02T00:52:00.438Z,24.06
2022-09-02T00:57:00.649Z,24.13
2022-09-02T01:02:01.125Z,24.10
2022-09-02T01:07:00.125Z,24.13
2022-09-02T01:12:03.674Z,24.04
2022-09-02T01:17:04.467Z,23.94
2022-09-02T01:22:07.786Z,23.87
2022-09-02T01:27:06.653Z,23.87
2022-09-02T01:32:05.558Z,23.86
2022-09-02T01:37:05.956Z,23.71
2022-09-02T01:42:05.081Z,23.70
2022-09-02T01:47:04.240Z,23.57
2022-09-02T01:52:03.403Z,23.50
2022-09-02T01:57:05.999Z,23.54
2022-09-02T02:02:05.577Z,23.46
2022-09-02T02:07:05.719Z,23.33
2022-09-02T02:12:07.402Z,23.26
2022-09-02T02:17:08.966Z,23.12
2022-09-02T02:22:07.908Z,22.88
2022-09-02T02:27:08.317Z,22.84
2022-09-02T02:32:08.124Z,22.83
2022-09-02T02:37:07.563Z,22.83
2022-09-02T02:42:09.184Z,22.76
2022-09-02T02:47:09.354Z,22.64
2022-09-02T02:52:08.696Z,22.62
2022-09-02T02:57:10.340Z,22.65
2022-09-02T03:02:09.451Z,22.66
2022-09-02T03:07:09.385Z,22.61
2022-09-02T03:12:10.189Z,22.61
2022-09-02T03:17:09.614Z,22.80
2022-09-02T03:22:11.971Z,22.99
2022-09-02T03:27:12.414Z,22.96
2022-09-02T03:32:12.026Z,23.26
2022-09-02T03:37:14.206Z,23.35
2022-09-02T03:42:19.479Z,23.47
2022-09-02T03:47:24.477Z,23.47
2022-09-02T03:52:26.336Z,23.41
2022-09-02T03:57:27.354Z,23.29
2022-09-02T04:02:26.507Z,23.46
2022-09-02T04:07:25.856Z,23.53
2022-09-02T04:12:32.432Z,23.58
2022-09-02T04:17:33.194Z,23.64
2022-09-02T04:22:32.743Z,23.70
2022-09-02T04:27:34.240Z,23.75
2022-09-02T04:32:38.404Z,23.75
2022-09-02T04:37:40.012Z,23.26
2022-09-02T04:42:41.393Z,23.16
2022-09-02T04:47:41.521Z,22.99
2022-09-02T04:52:41.114Z,23.08
2022-09-02T04:57:42.609Z,23.05
2022-09-02T05:02:42.071Z,23.01
2022-09-02T05:07:41.656Z,23.14
2022-09-02T05:12:42.634Z,23.16
2022-09-02T05:17:42.908Z,23.39
2022-09-02T05:22:43.503Z,23.56
2022-09-02T05:27:44.775Z,23.53
2022-09-02T05:32:44.175Z,23.46
2022-09-02T05:37:45.972Z,23.57
2022-09-02T05:42:47.054Z,23.78
2022-09-02T05:47:48.496Z,23.70
2022-09-02T05:52:51.299Z,23.72
2022-09-02T05:57:52.948Z,23.87
2022-09-02T06:02:55.714Z,23.88
2022-09-02T06:08:04.709Z,24.61
2022-09-02T06:13:05.125Z,24.98
2022-09-02T06:18:06.622Z,25.28
2022-09-02T06:23:05.949Z,25.41
2022-09-02T06:28:07.850Z,25.48
2022-09-02T06:33:12.205Z,25.38
2022-09-02T06:38:14.760Z,25.41
2022-09-02T06:43:21.217Z,25.28
2022-09-02T06:48:40.506Z,25.25
2022-09-02T06:53:40.559Z,25.30
2022-09-02T06:58:41.262Z,25.38
2022-09-02T07:03:59.926Z,25.27
2022-09-02T07:08:58.799Z,25.47
2022-09-02T07:14:01.945Z,25.76
2022-09-02T07:19:01.539Z,25.81
2022-09-02T07:24:01.810Z,25.71
2022-09-02T07:29:04.414Z,26.06
2022-09-02T07:34:04.550Z,26.66
2022-09-02T07:39:03.912Z,27.07
2022-09-02T07:44:05.723Z,27.41
2022-09-02T07:49:09.231Z,27.76
2022-09-02T07:54:10.249Z,28.01
2022-09-02T07:59:11.375Z,28.15
2022-09-02T08:04:12.417Z,28.31
2022-09-02T08:09:13.123Z,28.44
2022-09-02T08:14:18.245Z,28.50
2022-09-02T08:19:17.182Z,28.69
2022-09-02T08:24:16.046Z,28.84
2022-09-02T08:29:16.285Z,28.96
2022-09-02T08:34:18.784Z,28.95
2022-09-02T08:39:18.060Z,29.19
2022-09-02T08:44:22.808Z,29.35
2022-09-02T08:49:27.009Z,29.58
2022-09-02T08:54:33.037Z,29.72
2022-09-02T08:59:33.708Z,29.91
2022-09-02T09:04:49.465Z,30.00
2022-09-02T09:10:04.221Z,30.24
2022-09-02T09:15:13.095Z,30.50
2022-09-02T09:20:19.889Z,30.51
2022-09-02T09:25:19.814Z,30.86
2022-09-02T09:30:20.458Z,31.07
2022-09-02T09:35:20.436Z,31.28
2022-09-02T09:40:33.254Z,31.71
2022-09-02T09:45:36.170Z,32.31
2022-09-02T09:50:35.487Z,32.54
2022-09-02T09:55:38.070Z,33.01
2022-09-02T10:00:41.657Z,33.73
2022-09-02T10:05:44.921Z,33.82
2022-09-02T10:10:58.506Z,34.04
2022-09-02T10:16:20.537Z,34.24
2022-09-02T10:21:54.491Z,34.37
2022-09-02T10:26:59.280Z,34.59
2022-09-02T10:32:52.868Z,34.10
2022-09-02T10:44:25.559Z,33.59
2022-09-02T10:50:15.021Z,32.95
2022-09-02T10:55:29.688Z,32.91
2022-09-02T11:06:26.187Z,33.40
2022-09-02T11:17:44.962Z,34.31
2022-09-02T11:23:36.283Z,34.32
2022-09-02T11:28:44.740Z,34.59
2022-09-02T11:34:32.838Z,34.40
2022-09-02T11:40:11.584Z,34.31
2022-09-02T11:45:54.935Z,34.24
2022-09-02T11:51:12.209Z,33.88
2022-09-02T11:56:18.122Z,33.43
2022-09-02T12:01:29.419Z,33.49
2022-09-02T12:06:31.648Z,33.77
2022-09-02T12:11:55.226Z,33.29
2022-09-02T12:17:05.542Z,32.14
2022-09-02T12:22:38.939Z,31.62
2022-09-02T12:27:38.668Z,31.38
2022-09-02T12:33:09.690Z,30.94
2022-09-02T12:38:36.601Z,31.03
2022-09-02T12:43:47.375Z,30.87
2022-09-02T12:48:56.378Z,30.40
2022-09-02T12:53:55.434Z,30.28
2022-09-02T12:59:02.276Z,29.83
2022-09-02T13:04:23.466Z,28.99
2022-09-02T13:09:55.170Z,28.85
2022-09-02T13:15:36.152Z,28.65
2022-09-02T13:20:55.651Z,28.20
2022-09-02T13:26:27.451Z,26.96
2022-09-02T13:31:32.677Z,26.43
2022-09-02T13:36:36.987Z,26.42
2022-09-02T13:41:36.166Z,26.15
2022-09-02T13:46:35.205Z,26.18
2022-09-02T13:51:35.711Z,26.31
2022-09-02T13:56:34.776Z,26.34
2022-09-02T14:01:36.015Z,26.01
2022-09-02T14:06:52.998Z,24.89
2022-09-02T14:11:53.977Z,24.48
2022-09-02T14:16:53.038Z,24.46
2022-09-02T14:21:56.231Z,24.61
2022-09-02T14:27:15.877Z,24.69
2022-09-02T14:32:16.191Z,24.67
2022-09-02T14:37:23.536Z,24.79
2022-09-02T14:42:23.249Z,24.84
2022-09-02T14:47:24.488Z,24.76
2022-09-02T14:52:27.837Z,24.77
2022-09-02T14:58:45.455Z,24.83
2022-09-02T15:04:01.503Z,24.49
2022-09-02T15:09:01.738Z,24.09
2022-09-02T15:14:00.605Z,24.75
2022-09-02T15:18:59.934Z,25.05
2022-09-02T15:23:58.844Z,25.04
2022-09-02T15:28:59.393Z,25.18
2022-09-02T15:33:59.119Z,25.47
2022-09-02T15:38:58.108Z,25.68
2022-09-02T15:43:59.805Z,25.69
2022-09-02T15:49:02.853Z,25.64
2022-09-02T15:54:04.142Z,25.64
2022-09-02T15:59:10.888Z,25.57
2022-09-02T16:04:10.545Z,25.30
2022-09-02T16:09:10.508Z,25.39
2022-09-02T16:14:11.265Z,25.65
2022-09-02T16:19:11.281Z,25.66
2022-09-02T16:24:10.666Z,25.74
2022-09-02T16:29:14.399Z,25.82
2022-09-02T16:34:15.268Z,25.89
2022-09-02T16:39:15.543Z,25.69
2022-09-02T16:44:17.626Z,25.55
2022-09-02T16:49:20.492Z,25.57
2022-09-02T16:54:24.226Z,25.64
2022-09-02T16:59:32.667Z,25.86
2022-09-02T17:04:31.565Z,26.02
2022-09-02T17:09:31.428Z,25.98
2022-09-02T17:14:31.660Z,26.02
2022-09-02T17:19:32.724Z,26.06
2022-09-02T17:24:32.040Z,26.08
2022-09-02T17:29:48.669Z,26.13
2022-09-02T17:34:50.845Z,25.78
2022-09-02T17:39:49.931Z,25.44
2022-09-02T17:44:52.616Z,25.17
2022-09-02T17:49:51.775Z,24.94
2022-09-02T17:54:52.433Z,24.69
2022-09-02T18:00:05.608Z,24.26
2022-09-02T18:05:17.916Z,24.00
2022-09-02T18:10:23.653Z,24.07
2022-09-02T18:15:34.293Z,23.74
2022-09-02T18:21:44.701Z,23.40
2022-09-02T18:27:07.566Z,23.27
2022-09-02T18:54:52.104Z,23.42
2022-09-02T19:06:09.305Z,23.04
2022-09-02T19:11:16.846Z,22.96
2022-09-02T19:30:33.023Z,22.66
2022-09-02T19:49:45.280Z,22.65
2022-09-02T19:54:47.206Z,22.57
2022-09-02T19:59:47.789Z,22.14
2022-09-02T20:04:47.914Z,21.81
2022-09-02T20:09:48.870Z,21.82
2022-09-02T20:14:48.620Z,21.76
2022-09-02T20:20:29.983Z,21.78
2022-09-02T20:32:42.019Z,21.38
2022-09-02T20:37:55.802Z,21.53
2022-09-02T20:43:26.415Z,21.46
2022-09-02T20:48:44.782Z,21.42
2022-09-02T20:54:11.394Z,21.33
2022-09-02T20:59:20.538Z,21.34
2022-09-02T21:04:37.672Z,21.14
2022-09-02T21:09:49.897Z,21.06
2022-09-02T21:15:05.267Z,20.76
2022-09-02T21:20:12.793Z,20.86
2022-09-02T21:25:23.781Z,20.87
2022-09-02T21:30:26.062Z,20.78
2022-09-02T21:35:43.498Z,20.88
2022-09-02T21:40:55.935Z,20.89
2022-09-02T21:57:39.655Z,19.59
2022-09-02T22:03:04.478Z,19.63
2022-09-02T22:08:26.320Z,19.55
2022-09-02T22:13:26.046Z,19.56
2022-09-02T22:18:40.519Z,19.55
2022-09-02T22:23:44.545Z,19.55
2022-09-02T22:28:50.653Z,19.76
2022-09-02T22:34:03.287Z,19.65
2022-09-02T22:39:13.659Z,19.51
2022-09-02T22:44:55.580Z,19.58
2022-09-02T22:50:28.380Z,19.64
2022-09-02T22:55:53.833Z,19.66
2022-09-02T23:01:21.720Z,19.64
2022-09-02T23:06:45.243Z,19.61
2022-09-02T23:12:15.417Z,19.67
2022-09-02T23:17:58.666Z,19.76
2022-09-02T23:30:37.166Z,19.74
2022-09-02T23:35:33.867Z,19.52
2022-09-02T23:40:43.046Z,19.41
2022-09-02T23:45:43.250Z,19.14
2022-09-02T23:50:57.836Z,19.12
2022-09-02T23:56:04.473Z,19.18
